createdAt,value
2017-10-30T00:00:59.973Z,72.80
2017-10-30T00:02:05.708Z,72.72
2017-10-30T00:03:11.509Z,72.84
2017-10-30T00:04:17.264Z,72.81
2017-10-30T00:05:23.025Z,72.85
2017-10-30T00:06:28.773Z,72.73
2017-10-30T00:07:34.518Z,72.75
2017-10-30T00:08:40.305Z,72.89
2017-10-30T00:09:46.069Z,72.95
2017-10-30T00:10:51.819Z,72.70
2017-10-30T00:11:57.577Z,72.56
2017-10-30T00:13:03.332Z,72.63
2017-10-30T00:14:09.091Z,72.74
2017-10-30T00:15:15.944Z,72.70
2017-10-30T00:16:22.445Z,72.51
2017-10-30T00:17:28.209Z,72.45
2017-10-30T00:18:33.763Z,72.55
2017-10-30T00:19:39.537Z,72.33
2017-10-30T00:20:46.046Z,72.48
2017-10-30T00:21:51.797Z,72.60
2017-10-30T00:22:57.569Z,72.60
2017-10-30T00:24:04.813Z,72.47
2017-10-30T00:25:10.597Z,72.36
2017-10-30T00:26:20.049Z,72.65
2017-10-30T00:27:25.800Z,72.62
2017-10-30T00:28:36.229Z,72.62
2017-10-30T00:29:42.741Z,72.69
2017-10-30T00:30:48.509Z,72.84
2017-10-30T00:31:54.262Z,72.71
2017-10-30T00:33:00.009Z,72.86
2017-10-30T00:34:05.774Z,73.23
2017-10-30T00:35:11.543Z,73.37
2017-10-30T00:36:17.300Z,73.10
2017-10-30T00:37:23.047Z,73.26
2017-10-30T00:38:29.573Z,73.07
2017-10-30T00:39:35.324Z,73.09
2017-10-30T00:40:41.064Z,72.80
2017-10-30T00:41:46.847Z,72.80
2017-10-30T00:42:51.633Z,72.72
2017-10-30T00:43:57.387Z,72.86
2017-10-30T00:45:03.182Z,72.97
2017-10-30T00:46:08.722Z,72.85
2017-10-30T00:47:14.492Z,72.68
2017-10-30T00:48:20.233Z,72.71
2017-10-30T00:49:25.993Z,72.67
2017-10-30T00:50:31.743Z,72.72
2017-10-30T00:51:38.278Z,72.75
2017-10-30T00:52:44.045Z,72.83
2017-10-30T00:53:49.779Z,72.93
2017-10-30T00:54:55.527Z,73.12
2017-10-30T00:56:01.333Z,72.89
2017-10-30T00:57:07.103Z,73.16
2017-10-30T00:58:12.666Z,73.23
2017-10-30T00:59:19.185Z,73.06
2017-10-30T01:00:24.927Z,73.10
2017-10-30T01:01:30.942Z,73.30
2017-10-30T01:02:36.671Z,73.09
2017-10-30T01:03:42.436Z,72.99
2017-10-30T01:04:48.184Z,73.01
2017-10-30T01:05:53.920Z,72.99
2017-10-30T01:06:59.663Z,73.23
2017-10-30T01:08:05.395Z,73.55
2017-10-30T01:09:11.173Z,73.42
2017-10-30T01:10:16.904Z,73.57
2017-10-30T01:11:22.656Z,73.53
2017-10-30T01:12:28.402Z,73.74
2017-10-30T01:13:34.134Z,73.91
2017-10-30T01:14:39.896Z,73.79
2017-10-30T01:15:45.671Z,73.76
2017-10-30T01:16:51.442Z,73.85
2017-10-30T01:17:56.997Z,73.97
2017-10-30T01:19:02.572Z,74.10
2017-10-30T01:20:09.247Z,74.35
2017-10-30T01:21:15.003Z,74.35
2017-10-30T01:22:20.532Z,74.08
2017-10-30T01:23:26.277Z,73.93
2017-10-30T01:24:32.013Z,73.79
2017-10-30T01:25:37.815Z,73.63
2017-10-30T01:26:43.815Z,73.63
2017-10-30T01:27:49.348Z,73.70
2017-10-30T01:28:55.124Z,73.67
2017-10-30T01:30:00.866Z,73.71
2017-10-30T01:31:06.629Z,73.83
2017-10-30T01:32:13.128Z,73.76
2017-10-30T01:33:18.664Z,73.78
2017-10-30T01:34:24.412Z,73.83
2017-10-30T01:35:30.149Z,73.66
2017-10-30T01:36:35.693Z,73.87
2017-10-30T01:37:41.455Z,73.96
2017-10-30T01:38:47.461Z,74.00
2017-10-30T01:39:52.883Z,74.15
2017-10-30T01:40:59.417Z,74.20
2017-10-30T01:42:04.590Z,74.21
2017-10-30T01:43:10.342Z,74.19
2017-10-30T01:44:16.080Z,74.12
2017-10-30T01:45:21.833Z,74.04
2017-10-30T01:46:27.577Z,74.05
2017-10-30T01:47:33.336Z,74.19
2017-10-30T01:48:39.081Z,74.36
2017-10-30T01:49:44.871Z,74.35
2017-10-30T01:50:50.642Z,74.37
2017-10-30T01:51:56.394Z,74.18
2017-10-30T01:53:02.161Z,74.15
2017-10-30T01:54:09.226Z,74.23
2017-10-30T01:55:14.069Z,74.16
2017-10-30T01:56:20.241Z,74.26
2017-10-30T01:57:25.299Z,74.27
2017-10-30T01:58:30.405Z,74.48
2017-10-30T01:59:36.249Z,74.59
2017-10-30T02:00:42.003Z,74.32
2017-10-30T02:01:47.775Z,74.30
2017-10-30T02:02:52.731Z,74.53
2017-10-30T02:03:58.690Z,74.33
2017-10-30T02:05:05.277Z,74.51
2017-10-30T02:06:11.009Z,74.54
2017-10-30T02:07:16.757Z,74.57
2017-10-30T02:08:23.273Z,74.71
2017-10-30T02:09:29.050Z,74.55
2017-10-30T02:10:35.609Z,74.59
2017-10-30T02:11:42.125Z,74.77
2017-10-30T02:12:47.533Z,74.85
2017-10-30T02:13:53.274Z,75.08
2017-10-30T02:14:58.833Z,75.10
2017-10-30T02:16:04.570Z,75.01
2017-10-30T02:17:10.321Z,74.83
2017-10-30T02:18:16.085Z,74.79
2017-10-30T02:19:21.499Z,74.92
2017-10-30T02:20:26.467Z,74.75
2017-10-30T02:21:31.874Z,74.69
2017-10-30T02:22:37.613Z,74.79
2017-10-30T02:23:43.028Z,74.86
2017-10-30T02:24:48.782Z,74.92
2017-10-30T02:25:53.879Z,75.02
2017-10-30T02:26:58.920Z,74.92
2017-10-30T02:28:04.351Z,74.95
2017-10-30T02:29:10.116Z,74.91
2017-10-30T02:30:15.175Z,74.77
2017-10-30T02:31:21.434Z,74.77
2017-10-30T02:32:27.248Z,75.11
2017-10-30T02:33:33.028Z,75.11
2017-10-30T02:34:38.422Z,75.25
2017-10-30T02:35:43.826Z,75.40
2017-10-30T02:36:48.912Z,75.45
2017-10-30T02:37:54.747Z,75.31
2017-10-30T02:39:00.565Z,75.20
2017-10-30T02:40:07.125Z,75.35
2017-10-30T02:41:12.334Z,75.39
2017-10-30T02:42:17.414Z,75.60
2017-10-30T02:43:23.918Z,75.61
2017-10-30T02:44:29.325Z,75.62
2017-10-30T02:45:34.745Z,75.51
2017-10-30T02:46:40.926Z,75.44
2017-10-30T02:47:46.363Z,75.13
2017-10-30T02:48:51.762Z,75.19
2017-10-30T02:49:56.812Z,75.30
2017-10-30T02:51:02.245Z,75.45
2017-10-30T02:52:07.318Z,75.60
2017-10-30T02:53:12.407Z,75.63
2017-10-30T02:54:17.806Z,75.72
2017-10-30T02:55:24.439Z,75.64
2017-10-30T02:56:30.218Z,75.62
2017-10-30T02:57:35.957Z,75.68
2017-10-30T02:58:41.721Z,75.84
2017-10-30T02:59:47.133Z,76.03
2017-10-30T03:00:52.198Z,76.05
2017-10-30T03:01:57.245Z,76.07
2017-10-30T03:03:02.663Z,76.38
2017-10-30T03:04:08.082Z,76.33
2017-10-30T03:05:13.316Z,76.24
2017-10-30T03:06:18.373Z,76.18
2017-10-30T03:07:24.542Z,76.04
2017-10-30T03:08:29.952Z,76.17
2017-10-30T03:09:35.374Z,76.11
2017-10-30T03:10:41.113Z,75.95
2017-10-30T03:11:46.156Z,76.02
2017-10-30T03:12:53.050Z,75.75
2017-10-30T03:13:59.210Z,75.78
2017-10-30T03:15:04.630Z,75.80
2017-10-30T03:16:10.461Z,75.91
2017-10-30T03:17:16.101Z,76.09
2017-10-30T03:18:21.909Z,76.21
2017-10-30T03:19:26.784Z,76.01
2017-10-30T03:20:31.849Z,76.21
2017-10-30T03:21:36.910Z,76.19
2017-10-30T03:22:42.744Z,76.14
2017-10-30T03:23:48.188Z,76.02
2017-10-30T03:24:53.221Z,76.33
2017-10-30T03:25:59.757Z,76.06
2017-10-30T03:27:05.152Z,75.74
2017-10-30T03:28:09.991Z,75.74
2017-10-30T03:29:15.181Z,75.78
2017-10-30T03:30:20.232Z,76.01
2017-10-30T03:31:25.658Z,76.04
2017-10-30T03:32:31.082Z,76.09
2017-10-30T03:33:36.624Z,76.16
2017-10-30T03:34:42.366Z,76.14
2017-10-30T03:35:48.111Z,76.24
2017-10-30T03:36:53.872Z,76.10
2017-10-30T03:37:59.636Z,76.34
2017-10-30T03:39:05.225Z,76.48
2017-10-30T03:40:10.408Z,76.46
2017-10-30T03:41:16.921Z,76.37
2017-10-30T03:42:22.690Z,76.60
2017-10-30T03:43:29.598Z,76.68
2017-10-30T03:44:36.120Z,76.57
2017-10-30T03:45:41.198Z,76.42
2017-10-30T03:46:46.953Z,76.74
2017-10-30T03:47:52.731Z,76.71
2017-10-30T03:48:58.465Z,76.61
2017-10-30T03:50:04.208Z,76.67
2017-10-30T03:51:09.953Z,76.62
2017-10-30T03:52:15.706Z,76.69
2017-10-30T03:53:21.480Z,76.44
2017-10-30T03:54:27.225Z,76.46
2017-10-30T03:55:32.986Z,76.50
2017-10-30T03:56:38.962Z,76.48
2017-10-30T03:57:44.716Z,76.43
2017-10-30T03:58:50.492Z,76.41
2017-10-30T03:59:56.245Z,76.64
2017-10-30T04:01:01.987Z,76.51
2017-10-30T04:02:07.812Z,76.54
2017-10-30T04:03:14.331Z,76.50
2017-10-30T04:04:19.905Z,76.37
2017-10-30T04:05:26.412Z,76.42
2017-10-30T04:06:32.158Z,76.41
2017-10-30T04:07:37.889Z,76.42
2017-10-30T04:08:43.629Z,76.69
2017-10-30T04:09:49.448Z,76.86
2017-10-30T04:10:55.189Z,76.78
2017-10-30T04:12:01.740Z,76.71
2017-10-30T04:13:08.321Z,76.80
2017-10-30T04:14:14.556Z,77.06
2017-10-30T04:15:21.083Z,76.91
2017-10-30T04:16:26.820Z,77.10
2017-10-30T04:17:32.558Z,76.98
2017-10-30T04:18:38.309Z,76.89
2017-10-30T04:19:44.041Z,77.11
2017-10-30T04:20:49.814Z,77.09
2017-10-30T04:21:55.545Z,77.11
2017-10-30T04:23:01.127Z,77.10
2017-10-30T04:24:06.858Z,77.14
2017-10-30T04:25:12.597Z,77.26
2017-10-30T04:26:19.141Z,77.28
2017-10-30T04:27:25.654Z,77.50
2017-10-30T04:28:31.385Z,77.39
2017-10-30T04:29:37.156Z,77.31
2017-10-30T04:30:42.910Z,77.21
2017-10-30T04:31:48.683Z,77.16
2017-10-30T04:32:54.176Z,77.26
2017-10-30T04:33:59.934Z,77.47
2017-10-30T04:35:06.461Z,77.91
2017-10-30T04:36:12.211Z,77.77
2017-10-30T04:37:17.987Z,77.73
2017-10-30T04:38:24.500Z,77.68
2017-10-30T04:39:30.245Z,77.74
2017-10-30T04:40:35.987Z,77.78
2017-10-30T04:41:41.735Z,77.63
2017-10-30T04:42:47.502Z,77.85
2017-10-30T04:43:53.247Z,77.84
2017-10-30T04:44:59.529Z,77.79
2017-10-30T04:46:05.271Z,77.88
2017-10-30T04:47:11.007Z,78.12
2017-10-30T04:48:16.778Z,77.93
2017-10-30T04:49:22.528Z,77.95
2017-10-30T04:50:28.269Z,77.79
2017-10-30T04:51:33.841Z,77.66
2017-10-30T04:52:39.570Z,77.44
2017-10-30T04:53:45.351Z,77.49
2017-10-30T04:54:51.093Z,77.64
2017-10-30T04:55:56.824Z,77.69
2017-10-30T04:57:02.578Z,77.70
2017-10-30T04:58:09.095Z,77.73
2017-10-30T04:59:14.735Z,77.78
2017-10-30T05:00:20.485Z,77.89
2017-10-30T05:01:26.241Z,77.99
2017-10-30T05:02:32.749Z,78.11
2017-10-30T05:03:38.495Z,77.79
2017-10-30T05:04:44.104Z,77.68
2017-10-30T05:05:49.849Z,77.66
2017-10-30T05:06:55.597Z,77.70
2017-10-30T05:08:01.139Z,77.76
2017-10-30T05:09:06.560Z,77.95
2017-10-30T05:10:12.325Z,78.13
2017-10-30T05:11:18.084Z,77.80
2017-10-30T05:12:23.822Z,77.59
2017-10-30T05:13:29.561Z,77.69
2017-10-30T05:14:35.296Z,77.77
2017-10-30T05:15:40.865Z,77.64
2017-10-30T05:16:47.374Z,77.54
2017-10-30T05:17:53.116Z,77.61
2017-10-30T05:18:58.853Z,77.75
2017-10-30T05:20:04.593Z,77.74
2017-10-30T05:21:10.367Z,77.71
2017-10-30T05:22:16.344Z,77.99
2017-10-30T05:23:22.840Z,78.19
2017-10-30T05:24:28.577Z,77.99
2017-10-30T05:25:34.317Z,77.92
2017-10-30T05:26:40.086Z,78.12
2017-10-30T05:27:45.824Z,78.10
2017-10-30T05:28:51.562Z,78.17
2017-10-30T05:29:57.296Z,78.25
2017-10-30T05:31:03.048Z,78.55
2017-10-30T05:32:08.804Z,78.83
2017-10-30T05:33:16.046Z,78.60
2017-10-30T05:34:21.790Z,78.38
2017-10-30T05:35:27.533Z,78.27
2017-10-30T05:36:33.269Z,78.27
2017-10-30T05:37:39.038Z,78.40
2017-10-30T05:38:44.778Z,78.07
2017-10-30T05:39:50.519Z,78.22
2017-10-30T05:40:56.313Z,78.25
2017-10-30T05:42:02.805Z,78.52
2017-10-30T05:43:08.573Z,78.47
2017-10-30T05:44:13.974Z,78.31
2017-10-30T05:45:19.723Z,78.22
2017-10-30T05:46:25.475Z,78.20
2017-10-30T05:47:31.228Z,78.19
2017-10-30T05:48:37.757Z,78.07
2017-10-30T05:49:43.505Z,78.18
2017-10-30T05:50:49.237Z,78.35
2017-10-30T05:51:54.978Z,78.31
2017-10-30T05:53:00.730Z,78.20
2017-10-30T05:54:06.502Z,78.59
2017-10-30T05:55:12.251Z,78.53
2017-10-30T05:56:17.981Z,78.49
2017-10-30T05:57:23.717Z,78.37
2017-10-30T05:58:29.460Z,78.49
2017-10-30T05:59:35.228Z,78.70
2017-10-30T06:00:41.724Z,78.56
2017-10-30T06:01:47.464Z,78.48
2017-10-30T06:02:53.213Z,78.76
2017-10-30T06:03:58.962Z,78.58
2017-10-30T06:05:04.717Z,78.51
2017-10-30T06:06:10.453Z,78.39
2017-10-30T06:07:16.189Z,78.46
2017-10-30T06:08:21.999Z,78.45
2017-10-30T06:09:27.737Z,78.86
2017-10-30T06:10:33.308Z,78.77
2017-10-30T06:11:39.049Z,79.25
2017-10-30T06:12:44.797Z,79.45
2017-10-30T06:13:50.558Z,79.31
2017-10-30T06:14:56.098Z,79.35
2017-10-30T06:16:02.634Z,79.34
2017-10-30T06:17:08.363Z,79.31
2017-10-30T06:18:14.096Z,79.34
2017-10-30T06:19:19.846Z,79.62
2017-10-30T06:20:25.593Z,79.43
2017-10-30T06:21:31.369Z,79.26
2017-10-30T06:22:37.897Z,79.32
2017-10-30T06:23:43.622Z,79.51
2017-10-30T06:24:49.360Z,79.44
2017-10-30T06:25:55.097Z,79.38
2017-10-30T06:27:00.878Z,79.33
2017-10-30T06:28:06.617Z,79.04
2017-10-30T06:29:12.365Z,78.81
2017-10-30T06:30:18.109Z,78.85
2017-10-30T06:31:23.858Z,78.82
2017-10-30T06:32:29.618Z,78.85
2017-10-30T06:33:36.130Z,78.78
2017-10-30T06:34:41.885Z,78.85
2017-10-30T06:35:47.622Z,78.71
2017-10-30T06:36:53.364Z,78.31
2017-10-30T06:37:58.779Z,78.30
2017-10-30T06:39:04.873Z,78.38
2017-10-30T06:40:11.385Z,78.27
2017-10-30T06:41:17.114Z,78.10
2017-10-30T06:42:22.857Z,77.90
2017-10-30T06:43:28.616Z,77.84
2017-10-30T06:44:34.351Z,78.08
2017-10-30T06:45:40.100Z,77.89
2017-10-30T06:46:45.844Z,77.55
2017-10-30T06:47:51.580Z,77.43
2017-10-30T06:48:57.358Z,77.43
2017-10-30T06:50:03.629Z,77.16
2017-10-30T06:51:10.500Z,77.13
2017-10-30T06:52:17.120Z,77.01
2017-10-30T06:53:23.636Z,77.27
2017-10-30T06:54:29.395Z,77.26
2017-10-30T06:55:35.155Z,77.28
2017-10-30T06:56:40.687Z,77.34
2017-10-30T06:57:46.441Z,77.40
2017-10-30T06:58:52.177Z,77.21
2017-10-30T06:59:58.001Z,77.26
2017-10-30T07:01:03.746Z,76.96
2017-10-30T07:02:08.541Z,76.61
2017-10-30T07:03:13.950Z,76.97
2017-10-30T07:04:20.472Z,76.73
2017-10-30T07:05:26.426Z,76.44
2017-10-30T07:06:32.183Z,76.41
2017-10-30T07:07:38.704Z,76.57
2017-10-30T07:08:44.461Z,76.39
2017-10-30T07:09:50.205Z,76.58
2017-10-30T07:10:56.354Z,76.60
2017-10-30T07:12:02.123Z,76.30
2017-10-30T07:13:08.639Z,76.09
2017-10-30T07:14:14.384Z,75.99
2017-10-30T07:15:20.120Z,75.78
2017-10-30T07:16:25.201Z,75.91
2017-10-30T07:17:31.718Z,75.96
2017-10-30T07:18:37.457Z,75.69
2017-10-30T07:19:43.200Z,75.69
2017-10-30T07:20:48.932Z,75.92
2017-10-30T07:21:54.711Z,75.91
2017-10-30T07:23:01.226Z,75.62
2017-10-30T07:24:06.866Z,75.95
2017-10-30T07:25:12.954Z,75.56
2017-10-30T07:26:19.188Z,75.16
2017-10-30T07:27:25.748Z,75.32
2017-10-30T07:28:31.533Z,75.21
2017-10-30T07:29:38.075Z,75.10
2017-10-30T07:30:43.824Z,75.31
2017-10-30T07:31:50.331Z,75.09
2017-10-30T07:32:56.175Z,75.16
2017-10-30T07:34:01.944Z,75.27
2017-10-30T07:35:07.695Z,74.99
2017-10-30T07:36:14.231Z,74.86
2017-10-30T07:37:19.971Z,74.59
2017-10-30T07:38:25.740Z,74.72
2017-10-30T07:39:32.269Z,74.71
2017-10-30T07:40:38.015Z,74.35
2017-10-30T07:41:43.762Z,74.40
2017-10-30T07:42:49.499Z,74.66
2017-10-30T07:43:55.269Z,74.33
2017-10-30T07:45:01.801Z,74.19
2017-10-30T07:46:07.539Z,73.78
2017-10-30T07:47:13.532Z,73.30
2017-10-30T07:48:20.057Z,73.29
2017-10-30T07:49:25.841Z,73.03
2017-10-30T07:50:31.578Z,73.06
2017-10-30T07:51:37.393Z,73.23
2017-10-30T07:52:43.147Z,72.78
2017-10-30T07:53:49.302Z,72.31
2017-10-30T07:54:54.377Z,72.06
2017-10-30T07:55:59.777Z,71.71
2017-10-30T07:57:04.851Z,71.33
2017-10-30T07:58:10.256Z,70.86
2017-10-30T07:59:15.564Z,70.43
2017-10-30T08:00:20.395Z,69.54
2017-10-30T08:01:26.133Z,68.53
2017-10-30T08:02:31.541Z,67.70
2017-10-30T08:03:37.714Z,66.14
2017-10-30T08:04:43.482Z,65.40
2017-10-30T08:05:48.984Z,63.89
2017-10-30T08:06:55.182Z,63.14
2017-10-30T08:08:00.277Z,62.20
2017-10-30T08:09:04.884Z,61.37
2017-10-30T08:10:10.513Z,60.36
2017-10-30T08:11:17.057Z,58.93
2017-10-30T08:12:23.240Z,58.13
2017-10-30T08:13:29.350Z,57.42
2017-10-30T08:14:35.188Z,56.16
2017-10-30T08:15:40.601Z,55.60
2017-10-30T08:16:45.704Z,54.65
2017-10-30T08:17:51.473Z,54.60
2017-10-30T08:18:56.880Z,54.15
2017-10-30T08:20:02.082Z,53.79
2017-10-30T08:21:07.844Z,53.67
2017-10-30T08:22:13.620Z,52.49
2017-10-30T08:23:18.687Z,51.51
2017-10-30T08:24:24.105Z,51.14
2017-10-30T08:25:29.929Z,50.83
2017-10-30T08:26:35.955Z,51.21
2017-10-30T08:27:41.784Z,50.98
2017-10-30T08:28:47.205Z,50.70
2017-10-30T08:29:53.381Z,49.92
2017-10-30T08:30:58.453Z,49.61
2017-10-30T08:32:03.501Z,49.07
2017-10-30T08:33:10.221Z,49.20
2017-10-30T08:34:15.988Z,48.12
2017-10-30T08:35:21.387Z,47.94
2017-10-30T08:36:26.789Z,47.88
2017-10-30T08:37:32.334Z,47.51
2017-10-30T08:38:37.440Z,47.69
2017-10-30T08:39:43.611Z,47.73
2017-10-30T08:40:49.062Z,47.33
2017-10-30T08:41:54.821Z,46.17
2017-10-30T08:42:59.781Z,45.84
2017-10-30T08:44:06.045Z,45.76
2017-10-30T08:45:11.750Z,45.28
2017-10-30T08:46:17.517Z,45.59
2017-10-30T08:47:23.682Z,45.76
2017-10-30T08:48:28.760Z,45.70
2017-10-30T08:49:34.614Z,44.85
2017-10-30T08:50:41.173Z,45.00
2017-10-30T08:51:46.589Z,44.85
2017-10-30T08:52:51.778Z,44.40
2017-10-30T08:53:56.842Z,44.37
2017-10-30T08:55:02.296Z,44.26
2017-10-30T08:56:07.728Z,44.51
2017-10-30T08:57:13.901Z,43.92
2017-10-30T08:58:19.739Z,43.74
2017-10-30T08:59:27.009Z,44.10
2017-10-30T09:00:32.330Z,44.41
2017-10-30T09:01:37.861Z,43.97
2017-10-30T09:02:43.327Z,43.72
2017-10-30T09:03:48.759Z,43.24
2017-10-30T09:04:54.729Z,43.24
2017-10-30T09:06:00.184Z,43.31
2017-10-30T09:07:05.261Z,43.00
2017-10-30T09:08:11.002Z,42.79
2017-10-30T09:09:17.190Z,42.26
2017-10-30T09:10:22.384Z,42.19
2017-10-30T09:11:28.180Z,41.85
2017-10-30T09:12:33.363Z,41.66
2017-10-30T09:13:39.297Z,41.78
2017-10-30T09:14:45.280Z,41.88
2017-10-30T09:15:50.689Z,42.20
2017-10-30T09:16:56.902Z,42.30
2017-10-30T09:18:01.952Z,42.17
2017-10-30T09:19:07.825Z,42.22
2017-10-30T09:20:13.648Z,41.92
2017-10-30T09:21:19.967Z,42.11
2017-10-30T09:22:25.064Z,41.52
2017-10-30T09:23:30.126Z,41.46
2017-10-30T09:24:35.187Z,40.91
2017-10-30T09:25:41.377Z,41.10
2017-10-30T09:26:46.801Z,41.14
2017-10-30T09:27:51.888Z,40.63
2017-10-30T09:28:57.734Z,41.08
2017-10-30T09:30:04.024Z,41.21
2017-10-30T09:31:10.054Z,40.72
2017-10-30T09:32:15.256Z,41.38
2017-10-30T09:33:21.210Z,41.29
2017-10-30T09:34:27.435Z,41.25
2017-10-30T09:35:32.492Z,41.62
2017-10-30T09:36:38.376Z,41.74
2017-10-30T09:37:43.442Z,41.33
2017-10-30T09:38:48.876Z,41.17
2017-10-30T09:39:53.957Z,41.35
2017-10-30T09:40:59.012Z,41.45
2017-10-30T09:42:04.428Z,41.43
2017-10-30T09:43:09.832Z,41.11
2017-10-30T09:44:15.268Z,41.01
2017-10-30T09:45:20.686Z,41.38
2017-10-30T09:46:26.858Z,41.33
2017-10-30T09:47:31.933Z,41.10
2017-10-30T09:48:37.412Z,40.83
2017-10-30T09:49:42.882Z,41.13
2017-10-30T09:50:47.936Z,41.23
2017-10-30T09:51:53.018Z,41.59
2017-10-30T09:52:58.508Z,41.37
2017-10-30T09:54:04.689Z,41.65
2017-10-30T09:55:09.650Z,41.80
2017-10-30T09:56:15.899Z,42.07
2017-10-30T09:57:21.315Z,42.50
2017-10-30T09:58:26.768Z,42.47
2017-10-30T09:59:33.349Z,42.44
2017-10-30T10:00:38.798Z,42.24
2017-10-30T10:01:44.629Z,42.08
2017-10-30T10:02:51.227Z,42.04
2017-10-30T10:03:56.749Z,42.33
2017-10-30T10:05:02.278Z,42.88
2017-10-30T10:06:08.502Z,43.23
2017-10-30T10:07:14.083Z,43.57
2017-10-30T10:08:19.230Z,43.87
2017-10-30T10:09:24.730Z,44.04
2017-10-30T10:10:31.305Z,44.17
2017-10-30T10:11:37.349Z,43.99
2017-10-30T10:12:43.525Z,43.62
2017-10-30T10:13:48.961Z,43.45
2017-10-30T10:14:54.879Z,43.33
2017-10-30T10:16:01.324Z,42.96
2017-10-30T10:17:08.757Z,42.70
2017-10-30T10:18:14.054Z,41.21
2017-10-30T10:19:19.142Z,40.95
2017-10-30T10:20:25.905Z,41.13
2017-10-30T10:21:31.002Z,41.43
2017-10-30T10:22:36.157Z,40.94
2017-10-30T10:23:41.590Z,40.49
2017-10-30T10:24:46.912Z,40.63
2017-10-30T10:25:53.659Z,41.13
2017-10-30T10:26:58.915Z,40.83
2017-10-30T10:28:04.793Z,40.39
2017-10-30T10:29:10.205Z,40.73
2017-10-30T10:30:15.364Z,41.04
2017-10-30T10:31:20.796Z,41.16
2017-10-30T10:32:26.741Z,41.32
2017-10-30T10:33:31.849Z,41.33
2017-10-30T10:34:37.375Z,41.54
2017-10-30T10:35:42.729Z,42.01
2017-10-30T10:36:48.335Z,42.33
2017-10-30T10:37:53.433Z,41.85
2017-10-30T10:38:58.328Z,42.33
2017-10-30T10:40:03.750Z,42.01
2017-10-30T10:41:10.849Z,42.53
2017-10-30T10:42:16.269Z,43.25
2017-10-30T10:43:21.678Z,43.56
2017-10-30T10:44:27.548Z,43.59
2017-10-30T10:45:32.337Z,43.59
2017-10-30T10:46:38.515Z,43.43
2017-10-30T10:47:44.551Z,43.68
2017-10-30T10:48:49.990Z,43.47
2017-10-30T10:49:55.424Z,43.72
2017-10-30T10:51:01.201Z,44.12
2017-10-30T10:52:07.196Z,44.38
2017-10-30T10:53:13.756Z,44.50
2017-10-30T10:54:20.309Z,44.37
2017-10-30T10:55:26.125Z,44.49
2017-10-30T10:56:31.890Z,44.74
2017-10-30T10:57:38.189Z,44.63
2017-10-30T10:58:43.747Z,44.59
2017-10-30T10:59:49.488Z,44.12
2017-10-30T11:00:54.625Z,43.74
2017-10-30T11:02:00.368Z,42.67
2017-10-30T11:03:06.110Z,42.75
2017-10-30T11:04:11.877Z,42.86
2017-10-30T11:05:18.385Z,43.36
2017-10-30T11:06:24.784Z,43.54
2017-10-30T11:07:31.325Z,43.83
2017-10-30T11:08:37.124Z,43.98
2017-10-30T11:09:43.128Z,43.76
2017-10-30T11:10:49.660Z,43.52
2017-10-30T11:11:55.117Z,43.23
2017-10-30T11:13:01.074Z,43.30
2017-10-30T11:14:07.626Z,43.55
2017-10-30T11:15:13.044Z,43.45
2017-10-30T11:16:18.335Z,43.61
2017-10-30T11:17:23.416Z,43.69
2017-10-30T11:18:28.478Z,43.68
2017-10-30T11:19:34.424Z,43.95
2017-10-30T11:20:40.228Z,43.48
2017-10-30T11:21:46.016Z,43.44
2017-10-30T11:22:51.789Z,43.61
2017-10-30T11:23:57.544Z,43.98
2017-10-30T11:25:03.307Z,44.20
2017-10-30T11:26:08.581Z,44.18
2017-10-30T11:27:14.355Z,44.36
2017-10-30T11:28:20.047Z,44.41
2017-10-30T11:29:25.849Z,44.25
2017-10-30T11:30:31.711Z,43.87
2017-10-30T11:31:38.956Z,44.04
2017-10-30T11:32:44.809Z,43.89
2017-10-30T11:33:50.578Z,43.91
2017-10-30T11:34:57.260Z,43.69
2017-10-30T11:36:03.028Z,43.63
2017-10-30T11:37:08.785Z,43.70
2017-10-30T11:38:14.333Z,43.53
2017-10-30T11:39:19.845Z,42.72
2017-10-30T11:40:25.456Z,42.65
2017-10-30T11:41:31.219Z,42.66
2017-10-30T11:42:36.960Z,42.72
2017-10-30T11:43:42.713Z,43.10
2017-10-30T11:44:48.485Z,43.41
2017-10-30T11:45:54.237Z,43.95
2017-10-30T11:47:00.023Z,44.30
2017-10-30T11:48:06.281Z,44.67
2017-10-30T11:49:11.873Z,44.43
2017-10-30T11:50:17.941Z,44.45
2017-10-30T11:51:24.628Z,44.49
2017-10-30T11:52:30.610Z,44.82
2017-10-30T11:53:36.662Z,45.09
2017-10-30T11:54:42.414Z,44.28
2017-10-30T11:55:48.702Z,44.10
2017-10-30T11:56:55.236Z,44.15
2017-10-30T11:58:00.872Z,43.72
2017-10-30T11:59:06.638Z,43.97
2017-10-30T12:00:12.604Z,43.79
2017-10-30T12:01:18.163Z,43.51
2017-10-30T12:02:23.908Z,43.69
2017-10-30T12:03:29.823Z,43.65
2017-10-30T12:04:36.356Z,43.80
2017-10-30T12:05:42.096Z,43.74
2017-10-30T12:06:47.905Z,43.92
2017-10-30T12:07:53.474Z,43.43
2017-10-30T12:08:58.944Z,43.42
2017-10-30T12:10:05.565Z,43.25
2017-10-30T12:11:11.381Z,42.61
2017-10-30T12:12:17.263Z,42.52
2017-10-30T12:13:23.872Z,42.79
2017-10-30T12:14:29.789Z,42.72
2017-10-30T12:15:35.569Z,42.63
2017-10-30T12:16:41.486Z,42.47
2017-10-30T12:17:47.392Z,42.41
2017-10-30T12:18:54.096Z,42.13
2017-10-30T12:20:00.206Z,42.20
2017-10-30T12:21:07.580Z,42.32
2017-10-30T12:22:13.493Z,42.47
2017-10-30T12:23:19.625Z,42.32
2017-10-30T12:24:25.535Z,42.42
2017-10-30T12:25:32.985Z,42.32
2017-10-30T12:26:38.747Z,42.25
2017-10-30T12:27:44.489Z,42.28
2017-10-30T12:28:51.696Z,42.25
2017-10-30T12:29:57.462Z,42.15
2017-10-30T12:31:03.222Z,42.17
2017-10-30T12:32:08.976Z,42.31
2017-10-30T12:33:14.724Z,42.00
2017-10-30T12:34:21.164Z,41.80
2017-10-30T12:35:26.959Z,41.94
2017-10-30T12:36:32.803Z,40.92
2017-10-30T12:37:38.809Z,40.98
2017-10-30T12:38:44.730Z,40.98
2017-10-30T12:39:50.776Z,41.05
2017-10-30T12:40:56.734Z,41.04
2017-10-30T12:42:03.348Z,41.01
2017-10-30T12:43:09.121Z,40.90
2017-10-30T12:44:16.577Z,40.45
2017-10-30T12:45:22.375Z,40.13
2017-10-30T12:46:28.921Z,39.42
2017-10-30T12:47:34.735Z,39.32
2017-10-30T12:48:41.353Z,39.95
2017-10-30T12:49:47.378Z,40.46
2017-10-30T12:50:53.199Z,40.43
2017-10-30T12:51:59.977Z,40.50
2017-10-30T12:53:06.372Z,40.86
2017-10-30T12:54:12.410Z,41.33
2017-10-30T12:55:18.186Z,41.36
2017-10-30T12:56:24.028Z,41.38
2017-10-30T12:57:30.597Z,41.40
2017-10-30T12:58:37.125Z,41.68
2017-10-30T12:59:42.925Z,41.90
2017-10-30T13:00:48.762Z,42.18
2017-10-30T13:01:55.190Z,42.38
2017-10-30T13:03:00.845Z,42.35
2017-10-30T13:04:06.597Z,42.46
2017-10-30T13:05:13.117Z,42.42
2017-10-30T13:06:18.869Z,42.32
2017-10-30T13:07:24.704Z,41.96
2017-10-30T13:08:30.450Z,41.84
2017-10-30T13:09:36.305Z,41.70
2017-10-30T13:10:41.716Z,41.61
2017-10-30T13:11:47.466Z,41.52
2017-10-30T13:12:53.333Z,41.68
2017-10-30T13:13:59.110Z,41.87
2017-10-30T13:15:04.852Z,42.06
2017-10-30T13:16:11.390Z,42.29
2017-10-30T13:17:17.130Z,42.55
2017-10-30T13:18:22.896Z,42.63
2017-10-30T13:19:29.688Z,42.43
2017-10-30T13:20:35.516Z,42.22
2017-10-30T13:21:41.681Z,41.58
2017-10-30T13:22:47.429Z,41.27
2017-10-30T13:23:53.241Z,41.28
2017-10-30T13:24:59.752Z,40.73
2017-10-30T13:26:05.496Z,40.81
2017-10-30T13:27:11.244Z,41.07
2017-10-30T13:28:16.813Z,41.17
2017-10-30T13:29:23.360Z,41.43
2017-10-30T13:30:28.901Z,41.71
2017-10-30T13:31:34.704Z,41.87
2017-10-30T13:32:40.486Z,41.88
2017-10-30T13:33:46.307Z,41.93
2017-10-30T13:34:52.077Z,42.06
2017-10-30T13:35:57.818Z,42.13
2017-10-30T13:37:03.585Z,42.15
2017-10-30T13:38:09.376Z,42.30
2017-10-30T13:39:15.969Z,42.56
2017-10-30T13:40:21.741Z,42.91
2017-10-30T13:41:27.725Z,42.97
2017-10-30T13:42:34.244Z,43.02
2017-10-30T13:43:40.026Z,43.09
2017-10-30T13:44:46.587Z,43.02
2017-10-30T13:45:53.125Z,42.96
2017-10-30T13:46:59.646Z,43.06
2017-10-30T13:48:04.792Z,43.38
2017-10-30T13:49:10.537Z,43.34
2017-10-30T13:50:16.280Z,43.51
2017-10-30T13:51:22.065Z,43.48
2017-10-30T13:52:27.835Z,43.35
2017-10-30T13:53:33.586Z,43.29
2017-10-30T13:54:39.352Z,43.38
2017-10-30T13:55:45.130Z,43.45
2017-10-30T13:56:50.934Z,43.65
2017-10-30T13:57:57.426Z,43.83
2017-10-30T13:59:03.473Z,43.87
2017-10-30T14:00:09.242Z,43.72
2017-10-30T14:01:15.029Z,43.85
2017-10-30T14:02:20.804Z,44.02
2017-10-30T14:03:26.567Z,44.03
2017-10-30T14:04:32.359Z,44.08
2017-10-30T14:05:38.908Z,44.17
2017-10-30T14:06:44.664Z,44.21
2017-10-30T14:07:51.204Z,44.23